Time;durP1;ratioP1;P1;durP2;ratioP2;P2;SDS_P1;SDS_P2;PMS_P1;PMS_P2;Temp;Humidity;BMP_temperature;BMP_pressure;BME280_temperature;BME280_humidity;BME280_pressure;Samples;Min_cycle;Max_cycle;Signal;HPM_P1;HPM_P2
2021/03/29 00:00:47;;;;;;;6.37;5.73;;;7.30;99.90;;;;;;5051430;28;20543;-88
2021/03/29 00:03:14;;;;;;;6.60;5.23;;;7.30;99.90;;;;;;5067630;28;20442;-88
2021/03/29 00:05:40;;;;;;;6.60;5.07;;;7.40;99.90;;;;;;5063052;28;20446;-88
2021/03/29 00:08:16;;;;;;;6.43;4.80;;;7.30;99.90;;;;;;5048103;28;20538;-88
2021/03/29 00:10:44;;;;;;;7.07;5.20;;;7.30;99.90;;;;;;5053320;28;20439;-89
2021/03/29 00:13:12;;;;;;;7.10;4.50;;;7.30;99.90;;;;;;5059041;28;20551;-88
2021/03/29 00:15:41;;;;;;;4.73;4.33;;;7.20;99.90;;;;;;5048887;28;20449;-89
2021/03/29 00:18:09;;;;;;;6.33;4.63;;;7.10;99.90;;;;;;5056793;28;20449;-89
2021/03/29 00:20:38;;;;;;;5.87;4.53;;;7.10;99.90;;;;;;5047539;28;20524;-90
2021/03/29 00:23:04;;;;;;;7.23;4.33;;;7.20;99.90;;;;;;5048786;28;20468;-90
2021/03/29 00:25:32;;;;;;;4.80;4.20;;;7.10;99.90;;;;;;5052599;28;20445;-89
2021/03/29 00:27:58;;;;;;;7.40;4.70;;;7.10;99.90;;;;;;5071959;28;20481;-90
2021/03/29 00:30:30;;;;;;;5.50;4.40;;;7.10;99.90;;;;;;5045613;28;20490;-89
2021/03/29 00:32:57;;;;;;;5.97;3.93;;;7.10;99.90;;;;;;5042390;28;20438;-89
2021/03/29 00:35:26;;;;;;;6.43;5.20;;;7.10;99.90;;;;;;5035948;28;20440;-89
2021/03/29 00:37:54;;;;;;;5.23;4.47;;;7.10;99.90;;;;;;5036575;28;20443;-89
2021/03/29 00:40:22;;;;;;;6.43;4.90;;;7.00;99.90;;;;;;5039758;28;23255;-89
2021/03/29 00:42:54;;;;;;;10.00;4.47;;;7.00;99.90;;;;;;5046694;28;20456;-88
2021/03/29 00:45:20;;;;;;;5.37;4.27;;;7.00;99.90;;;;;;5057968;28;20467;-89
2021/03/29 00:47:47;;;;;;;8.03;4.60;;;7.10;99.90;;;;;;5036549;28;20700;-89
2021/03/29 00:50:18;;;;;;;4.80;4.13;;;7.10;99.90;;;;;;5040711;28;20445;-89
2021/03/29 00:52:44;;;;;;;6.03;4.50;;;7.00;99.90;;;;;;5060196;28;20498;-89
2021/03/29 00:55:11;;;;;;;7.73;5.50;;;7.00;99.90;;;;;;5069826;28;20477;-88
2021/03/29 00:57:38;;;;;;;7.13;5.90;;;7.00;99.90;;;;;;5040171;28;20481;-89
2021/03/29 01:00:27;;;;;;;4.60;4.20;;;7.00;99.90;;;;;;5037781;28;20470;-89
2021/03/29 01:02:53;;;;;;;6.40;4.07;;;6.90;99.90;;;;;;5046244;28;20475;-88
2021/03/29 01:05:21;;;;;;;5.90;4.57;;;6.90;99.90;;;;;;5036950;28;20432;-88
2021/03/29 01:07:49;;;;;;;8.43;4.60;;;6.90;99.90;;;;;;5051846;28;20485;-89
2021/03/29 01:10:16;;;;;;;5.30;4.60;;;6.80;99.90;;;;;;5041538;28;20442;-88
2021/03/29 01:12:44;;;;;;;6.30;4.27;;;6.70;99.90;;;;;;5032776;28;20492;-88
2021/03/29 01:15:13;;;;;;;4.60;3.60;;;6.70;99.90;;;;;;5041662;28;20434;-89
2021/03/29 01:17:43;;;;;;;4.83;3.73;;;6.70;99.90;;;;;;5065896;28;20615;-88
2021/03/29 01:20:29;;;;;;;4.60;3.80;;;6.60;99.90;;;;;;5043500;28;20790;-88
2021/03/29 01:22:56;;;;;;;4.30;3.80;;;6.60;99.90;;;;;;5068938;28;20453;-89
2021/03/29 01:25:45;;;;;;;5.50;3.93;;;6.50;99.90;;;;;;5038715;28;20440;-89
2021/03/29 01:28:17;;;;;;;5.87;4.40;;;6.60;99.90;;;;;;5023368;28;20466;-88
2021/03/29 01:30:44;;;;;;;6.90;3.70;;;6.50;99.90;;;;;;5033067;28;20452;-88
2021/03/29 01:33:10;;;;;;;5.30;3.57;;;6.50;99.90;;;;;;5046439;28;20498;-88
2021/03/29 01:35:40;;;;;;;5.53;4.10;;;6.50;99.90;;;;;;5037295;28;20806;-89
2021/03/29 01:38:07;;;;;;;5.50;4.30;;;6.40;99.90;;;;;;5060351;28;20514;-89
2021/03/29 01:40:38;;;;;;;4.90;4.47;;;6.40;99.90;;;;;;5069849;28;20444;-89
2021/03/29 01:43:13;;;;;;;6.07;4.50;;;6.40;99.90;;;;;;5039006;28;20455;-89
2021/03/29 01:45:40;;;;;;;5.30;4.47;;;6.40;99.90;;;;;;5070378;28;20442;-88
2021/03/29 01:48:08;;;;;;;9.00;5.33;;;6.50;99.90;;;;;;5039647;28;20473;-89
2021/03/29 01:50:38;;;;;;;5.80;4.80;;;6.50;99.90;;;;;;5038520;28;21029;-89
2021/03/29 01:53:05;;;;;;;7.10;5.57;;;6.40;99.90;;;;;;5048066;28;20977;-89
2021/03/29 01:55:35;;;;;;;11.50;4.70;;;6.40;99.90;;;;;;5036123;28;20453;-89
2021/03/29 01:58:01;;;;;;;4.60;4.17;;;6.40;99.90;;;;;;5036318;28;20949;-89
2021/03/29 02:00:43;;;;;;;6.30;4.50;;;6.40;99.90;;;;;;5064706;28;20465;-88
2021/03/29 02:03:11;;;;;;;5.77;4.70;;;6.30;99.90;;;;;;5036306;28;20442;-89
2021/03/29 02:05:39;;;;;;;5.27;4.33;;;6.20;99.90;;;;;;5034677;28;20450;-89
2021/03/29 02:08:05;;;;;;;6.40;3.90;;;6.30;99.90;;;;;;5037393;28;20481;-89
2021/03/29 02:10:36;;;;;;;8.13;4.03;;;6.30;99.90;;;;;;5040112;28;20861;-88
2021/03/29 02:13:05;;;;;;;5.40;4.20;;;6.30;99.90;;;;;;5037596;28;20473;-88
2021/03/29 02:15:32;;;;;;;4.40;4.00;;;6.30;99.90;;;;;;5034568;28;20462;-88
2021/03/29 02:18:28;;;;;;;6.00;3.80;;;6.30;99.90;;;;;;5040354;28;20970;-89
2021/03/29 02:21:02;;;;;;;5.20;4.30;;;6.30;99.90;;;;;;5035714;28;20446;-90
2021/03/29 02:23:29;;;;;;;5.27;4.07;;;6.30;99.90;;;;;;5033912;28;20569;-88
2021/03/29 02:25:58;;;;;;;5.80;4.03;;;6.30;99.90;;;;;;5035202;28;20507;-88
2021/03/29 02:28:24;;;;;;;4.93;4.37;;;6.30;99.90;;;;;;5033272;28;20466;-89
2021/03/29 02:30:50;;;;;;;6.03;4.47;;;6.20;99.90;;;;;;5032145;28;20449;-88
2021/03/29 02:33:16;;;;;;;5.73;3.80;;;6.10;99.90;;;;;;5034929;28;20438;-89
2021/03/29 02:35:43;;;;;;;4.10;3.73;;;6.20;99.90;;;;;;5035130;28;20454;-89
2021/03/29 02:38:16;;;;;;;4.27;3.87;;;6.20;99.90;;;;;;5040746;28;20453;-89
2021/03/29 02:40:43;;;;;;;4.83;4.03;;;6.20;99.90;;;;;;5033545;28;20442;-89
2021/03/29 02:43:11;;;;;;;5.63;4.07;;;6.20;99.90;;;;;;5078456;28;20446;-88
2021/03/29 02:45:45;;;;;;;5.80;4.70;;;6.10;99.90;;;;;;5032382;28;20452;-89
2021/03/29 02:48:14;;;;;;;6.90;5.00;;;6.10;99.90;;;;;;5038969;28;20535;-89
2021/03/29 02:50:43;;;;;;;7.63;4.57;;;6.10;99.90;;;;;;5034168;28;20971;-89
2021/03/29 02:53:17;;;;;;;4.67;4.23;;;6.10;99.90;;;;;;5062503;28;20479;-89
2021/03/29 02:55:44;;;;;;;5.90;4.00;;;6.00;99.90;;;;;;5037512;28;20449;-89
2021/03/29 02:58:12;;;;;;;5.77;4.13;;;6.00;99.90;;;;;;5041951;28;20446;-88
2021/03/29 03:00:38;;;;;;;5.33;3.90;;;6.00;99.90;;;;;;5045768;28;22287;-89
2021/03/29 03:03:06;;;;;;;5.57;4.50;;;5.90;99.90;;;;;;5046349;28;20445;-89
2021/03/29 03:05:35;;;;;;;7.90;3.73;;;5.80;99.90;;;;;;5039335;28;20435;-89
2021/03/29 03:08:04;;;;;;;4.20;3.80;;;5.90;99.90;;;;;;5045109;28;20581;-88
2021/03/29 03:10:30;;;;;;;6.10;3.90;;;5.80;99.90;;;;;;5037336;28;20450;-89
2021/03/29 03:12:57;;;;;;;6.80;5.43;;;5.90;99.90;;;;;;5059879;28;20441;-88
2021/03/29 03:15:28;;;;;;;5.70;5.20;;;5.80;99.90;;;;;;5041439;28;20950;-89
2021/03/29 03:17:55;;;;;;;5.73;5.13;;;5.80;99.90;;;;;;5037076;28;22118;-89
2021/03/29 03:20:21;;;;;;;7.67;4.67;;;5.70;99.90;;;;;;5033717;28;20495;-89
2021/03/29 03:23:02;;;;;;;6.80;4.50;;;5.70;99.90;;;;;;5040646;28;21510;-89
2021/03/29 03:25:35;;;;;;;5.40;3.93;;;5.60;99.90;;;;;;5051189;28;20849;-89
2021/03/29 03:28:02;;;;;;;5.33;4.00;;;5.60;99.90;;;;;;5043075;28;20521;-89
2021/03/29 03:30:31;;;;;;;5.50;4.63;;;5.60;99.90;;;;;;5038129;28;20587;-89
2021/03/29 03:32:58;;;;;;;5.63;4.87;;;5.60;99.90;;;;;;5041678;28;20445;-89
2021/03/29 03:35:26;;;;;;;6.87;4.67;;;5.60;99.90;;;;;;5031537;28;20502;-89
2021/03/29 03:37:59;;;;;;;4.10;3.70;;;5.60;99.90;;;;;;5037506;28;20473;-89
2021/03/29 03:40:28;;;;;;;7.17;4.03;;;5.50;99.90;;;;;;5069489;28;20446;-88
2021/03/29 03:42:59;;;;;;;10.47;4.80;;;5.60;99.90;;;;;;5037586;28;20472;-88
2021/03/29 03:45:29;;;;;;;7.50;5.57;;;5.60;99.90;;;;;;5046645;28;20466;-89
2021/03/29 03:47:57;;;;;;;7.23;5.67;;;5.40;99.90;;;;;;5034581;28;20509;-89
2021/03/29 03:50:24;;;;;;;5.70;4.73;;;5.30;99.90;;;;;;5035469;28;20838;-88
2021/03/29 03:52:53;;;;;;;6.10;4.30;;;5.30;99.90;;;;;;5041226;28;20902;-88
2021/03/29 03:55:20;;;;;;;6.07;4.30;;;5.40;99.90;;;;;;5038921;28;21088;-88
2021/03/29 03:57:46;;;;;;;5.90;4.30;;;5.40;99.90;;;;;;5039213;28;20541;-88
2021/03/29 04:00:20;;;;;;;4.67;4.17;;;5.30;99.90;;;;;;5067644;28;20442;-88
2021/03/29 04:02:49;;;;;;;6.37;3.97;;;5.30;99.90;;;;;;5032669;28;20545;-89
2021/03/29 04:05:16;;;;;;;7.27;3.90;;;5.40;99.90;;;;;;5035273;28;20605;-89
2021/03/29 04:07:42;;;;;;;5.20;4.10;;;5.40;99.90;;;;;;5044269;28;20519;-89
2021/03/29 04:10:22;;;;;;;7.00;5.20;;;5.40;99.90;;;;;;5038301;28;20438;-89
2021/03/29 04:12:56;;;;;;;6.30;5.23;;;5.30;99.90;;;;;;5067474;28;21207;-88
2021/03/29 04:15:22;;;;;;;7.70;5.57;;;5.30;99.90;;;;;;5051388;28;22626;-89
2021/03/29 04:17:48;;;;;;;14.93;9.47;;;5.30;99.90;;;;;;5031449;28;20503;-90
2021/03/29 04:20:16;;;;;;;12.63;7.70;;;5.30;99.90;;;;;;5042378;28;21401;-90
2021/03/29 04:23:01;;;;;;;7.23;4.30;;;5.30;99.90;;;;;;5043398;28;20464;-90
2021/03/29 04:25:27;;;;;;;6.50;4.77;;;5.20;99.90;;;;;;5042771;28;20438;-88
2021/03/29 04:27:57;;;;;;;8.60;5.27;;;5.10;99.90;;;;;;5042280;28;21028;-94
2021/03/29 04:30:23;;;;;;;6.33;4.30;;;5.10;99.90;;;;;;5057799;28;20536;-90
2021/03/29 04:32:49;;;;;;;5.73;3.93;;;5.10;99.90;;;;;;5044910;28;20477;-90
2021/03/29 04:35:24;;;;;;;5.67;3.40;;;5.00;99.90;;;;;;5051883;28;20820;-91
2021/03/29 04:37:51;;;;;;;7.00;4.17;;;5.00;99.90;;;;;;5046723;28;20536;-91
2021/03/29 04:40:20;;;;;;;5.23;3.63;;;5.00;99.90;;;;;;5046939;28;20439;-90
2021/03/29 04:42:46;;;;;;;5.37;4.63;;;5.00;99.90;;;;;;5050996;28;20454;-90
2021/03/29 04:45:12;;;;;;;6.47;5.87;;;5.10;99.90;;;;;;5052789;28;20467;-91
2021/03/29 04:47:38;;;;;;;5.77;4.90;;;5.20;99.90;;;;;;5048379;28;20740;-90
2021/03/29 04:50:06;;;;;;;4.77;4.37;;;5.00;99.90;;;;;;5054355;28;21001;-90
2021/03/29 04:52:32;;;;;;;5.40;4.80;;;5.10;99.90;;;;;;5050798;28;20461;-90
2021/03/29 04:54:57;;;;;;;7.30;5.27;;;4.90;99.90;;;;;;5053688;28;20434;-90
2021/03/29 04:57:23;;;;;;;8.07;4.53;;;4.80;99.90;;;;;;5053177;28;21017;-91
2021/03/29 04:59:49;;;;;;;6.40;4.87;;;4.80;99.90;;;;;;5047523;28;20183;-90
2021/03/29 05:02:14;;;;;;;7.80;4.87;;;4.90;99.90;;;;;;5050778;28;20187;-91
2021/03/29 05:04:40;;;;;;;6.83;4.87;;;5.00;99.90;;;;;;5049405;28;20261;-90
2021/03/29 05:07:13;;;;;;;4.87;4.37;;;5.00;99.90;;;;;;5050703;28;20278;-90
2021/03/29 05:09:39;;;;;;;4.43;4.03;;;5.00;99.90;;;;;;5046831;28;20187;-91
2021/03/29 05:12:11;;;;;;;6.57;4.47;;;4.90;99.90;;;;;;5052259;28;20444;-91
2021/03/29 05:14:38;;;;;;;9.70;4.67;;;4.90;99.90;;;;;;5045594;28;20478;-89
2021/03/29 05:17:05;;;;;;;6.73;4.80;;;4.90;99.90;;;;;;5046443;28;20451;-90
2021/03/29 05:19:31;;;;;;;5.63;5.03;;;5.00;99.90;;;;;;5050524;28;20442;-89
2021/03/29 05:21:57;;;;;;;7.23;3.83;;;5.10;99.90;;;;;;5046909;28;20434;-89
2021/03/29 05:24:23;;;;;;;7.33;4.33;;;5.20;99.90;;;;;;5051436;28;20187;-91
2021/03/29 05:26:52;;;;;;;4.50;3.63;;;5.40;99.90;;;;;;5052209;28;20844;-90
2021/03/29 05:29:18;;;;;;;4.57;3.77;;;5.50;99.90;;;;;;5048311;28;20191;-90
2021/03/29 05:31:44;;;;;;;4.60;3.30;;;5.60;99.90;;;;;;5052887;28;21908;-90
2021/03/29 05:34:12;;;;;;;6.07;4.07;;;5.60;99.90;;;;;;5048511;28;20532;-89
2021/03/29 05:36:41;;;;;;;5.83;4.20;;;5.70;99.90;;;;;;5051835;28;20196;-89
2021/03/29 05:39:09;;;;;;;5.50;3.80;;;5.60;99.90;;;;;;5053763;28;20891;-90
2021/03/29 05:41:37;;;;;;;6.37;3.90;;;5.60;99.90;;;;;;5054869;28;20461;-89
2021/03/29 05:44:03;;;;;;;4.03;3.13;;;5.60;99.90;;;;;;5044692;28;20476;-90
2021/03/29 05:46:28;;;;;;;6.10;3.17;;;5.70;99.90;;;;;;5045436;28;20473;-89
2021/03/29 05:48:54;;;;;;;4.63;3.80;;;5.70;99.90;;;;;;5045022;28;20513;-89
2021/03/29 05:51:20;;;;;;;4.53;3.27;;;5.80;99.90;;;;;;5046858;28;20191;-90
2021/03/29 05:53:46;;;;;;;5.83;3.63;;;5.90;99.90;;;;;;5046050;28;20454;-90
2021/03/29 05:56:13;;;;;;;4.20;3.90;;;6.00;99.90;;;;;;5048720;28;20179;-89
2021/03/29 05:58:55;;;;;;;5.23;3.67;;;6.10;99.90;;;;;;5047380;28;20188;-89
2021/03/29 06:01:20;;;;;;;4.57;3.40;;;6.00;99.90;;;;;;5049629;28;20466;-91
2021/03/29 06:03:46;;;;;;;5.13;4.60;;;6.20;99.90;;;;;;5049386;28;21021;-92
2021/03/29 06:06:12;;;;;;;5.30;4.17;;;6.20;99.90;;;;;;5054037;28;20182;-91
2021/03/29 06:08:49;;;;;;;5.07;3.70;;;6.40;99.90;;;;;;5049180;28;20227;-90
2021/03/29 06:11:28;;;;;;;5.37;3.70;;;6.20;99.90;;;;;;5045860;28;20530;-90
2021/03/29 06:14:13;;;;;;;5.23;3.60;;;6.20;99.90;;;;;;5081787;28;20966;-92
2021/03/29 06:17:06;;;;;;;4.53;3.90;;;6.30;99.90;;;;;;5052418;28;20430;-91
2021/03/29 06:19:45;;;;;;;4.90;3.60;;;6.30;99.90;;;;;;5048604;28;20447;-92
2021/03/29 06:22:27;;;;;;;4.77;3.73;;;6.40;99.90;;;;;;5046945;28;20426;-91
2021/03/29 06:25:10;;;;;;;4.97;3.73;;;6.50;99.90;;;;;;5048223;28;20833;-90
2021/03/29 06:27:58;;;;;;;8.13;4.03;;;6.40;99.90;;;;;;5045476;28;22092;-88
2021/03/29 06:30:25;;;;;;;5.57;5.00;;;6.40;99.90;;;;;;5062048;28;20458;-88
2021/03/29 06:33:18;;;;;;;25.37;21.97;;;6.30;99.90;;;;;;5055256;28;20461;-96
2021/03/29 06:35:53;;;;;;;10.83;8.60;;;6.30;99.90;;;;;;5052155;28;20761;-95
2021/03/29 06:38:22;;;;;;;5.53;4.37;;;6.40;99.90;;;;;;5047106;28;20440;-90
2021/03/29 06:41:03;;;;;;;4.97;4.43;;;6.40;99.90;;;;;;5048144;28;20453;-94
2021/03/29 06:43:41;;;;;;;6.53;4.77;;;6.30;99.90;;;;;;5050002;28;20438;-95
2021/03/29 06:46:18;;;;;;;5.37;4.37;;;6.30;99.90;;;;;;5045666;28;20438;-92
2021/03/29 06:48:44;;;;;;;9.37;5.00;;;6.40;99.90;;;;;;5050945;28;20465;-95
2021/03/29 06:51:13;;;;;;;5.57;5.07;;;6.40;99.90;;;;;;5044288;28;20448;-90
2021/03/29 06:53:44;;;;;;;6.93;4.50;;;6.70;99.90;;;;;;5075363;28;20190;-89
2021/03/29 06:56:19;;;;;;;6.00;4.70;;;6.80;99.90;;;;;;5046665;28;20971;-90
2021/03/29 06:58:47;;;;;;;6.53;4.40;;;6.90;99.90;;;;;;5049113;28;20521;-90
2021/03/29 07:01:23;;;;;;;6.13;4.83;;;7.00;99.90;;;;;;5043962;28;20425;-90
2021/03/29 07:03:50;;;;;;;6.53;5.93;;;7.20;99.90;;;;;;5046949;28;20455;-89
2021/03/29 07:06:18;;;;;;;6.50;5.20;;;7.40;99.90;;;;;;5040277;28;21001;-88
2021/03/29 07:08:45;;;;;;;7.73;5.40;;;7.60;99.90;;;;;;5044725;28;21740;-90
2021/03/29 07:11:17;;;;;;;6.83;5.33;;;7.80;99.90;;;;;;5046172;28;20465;-87
2021/03/29 07:13:44;;;;;;;5.33;4.53;;;7.80;99.90;;;;;;5048455;28;20528;-87
2021/03/29 07:16:10;;;;;;;7.33;5.27;;;7.70;99.90;;;;;;5041583;28;20449;-87
2021/03/29 07:18:37;;;;;;;5.23;4.73;;;7.70;99.90;;;;;;5047066;28;20454;-87
2021/03/29 07:21:09;;;;;;;8.63;5.90;;;7.70;99.90;;;;;;5042930;28;20804;-86
2021/03/29 07:23:35;;;;;;;6.33;5.70;;;7.60;99.90;;;;;;5044940;28;20457;-86
2021/03/29 07:26:01;;;;;;;5.90;5.07;;;7.60;99.90;;;;;;5039355;28;20824;-87
2021/03/29 07:28:29;;;;;;;11.23;5.93;;;7.70;99.90;;;;;;5044155;28;20476;-87
2021/03/29 07:30:59;;;;;;;7.20;5.30;;;7.80;99.90;;;;;;5044320;28;20472;-87
2021/03/29 07:33:46;;;;;;;6.30;4.93;;;7.90;99.90;;;;;;5043962;28;20503;-87
2021/03/29 07:36:12;;;;;;;5.50;4.67;;;8.20;99.90;;;;;;5043532;28;20483;-87
2021/03/29 07:38:56;;;;;;;6.90;4.30;;;8.60;99.90;;;;;;5030282;28;20503;-87
2021/03/29 07:41:22;;;;;;;4.53;4.03;;;8.90;99.90;;;;;;5048137;28;20841;-86
2021/03/29 07:44:18;;;;;;;4.60;3.30;;;9.20;99.90;;;;;;5051807;28;20450;-92
2021/03/29 07:46:47;;;;;;;4.43;3.60;;;9.50;98.90;;;;;;5050226;28;20554;-91
2021/03/29 07:49:42;;;;;;;5.00;4.27;;;10.00;97.30;;;;;;5049891;28;20468;-90
2021/03/29 07:52:38;;;;;;;6.03;3.73;;;10.20;96.20;;;;;;5049972;28;21938;-96
2021/03/29 07:55:29;;;;;;;6.20;4.07;;;10.50;95.60;;;;;;5043205;28;20473;-92
2021/03/29 07:57:55;;;;;;;6.00;4.53;;;10.40;95.20;;;;;;5048147;28;20496;-94
2021/03/29 08:00:24;;;;;;;5.30;3.87;;;10.20;94.90;;;;;;5086068;28;20446;-91
2021/03/29 08:03:06;;;;;;;5.17;3.90;;;10.30;94.80;;;;;;5050493;28;20215;-94
2021/03/29 08:05:43;;;;;;;4.80;3.20;;;10.50;95.40;;;;;;5050873;28;20502;-96
2021/03/29 08:08:35;;;;;;;3.90;3.00;;;11.30;94.40;;;;;;5048807;28;20639;-93
2021/03/29 08:11:55;;;;;;;3.80;3.47;;;11.40;92.80;;;;;;5062425;28;20527;-92
2021/03/29 08:17:45;;;;;;;17.97;16.00;;;11.40;91.80;;;;;;5043092;28;20453;-89
2021/03/29 08:20:14;;;;;;;5.43;4.30;;;11.20;91.00;;;;;;5043818;28;20527;-90
2021/03/29 08:22:40;;;;;;;3.50;3.20;;;11.30;90.80;;;;;;5081937;28;20516;-92
2021/03/29 08:25:29;;;;;;;4.50;3.53;;;11.50;90.30;;;;;;5049168;28;20635;-94
2021/03/29 08:27:56;;;;;;;4.00;3.60;;;11.80;90.00;;;;;;5076131;28;20513;-85
2021/03/29 08:30:23;;;;;;;3.37;2.90;;;11.80;88.90;;;;;;5082505;28;20476;-90
2021/03/29 08:32:48;;;;;;;4.03;3.40;;;12.10;88.50;;;;;;5053426;28;20442;-90
2021/03/29 08:35:17;;;;;;;4.77;3.43;;;12.30;88.00;;;;;;5049943;28;20472;-89
2021/03/29 08:37:51;;;;;;;3.10;2.67;;;12.50;86.70;;;;;;5055086;28;20590;-90
2021/03/29 08:40:24;;;;;;;3.67;3.37;;;12.70;83.10;;;;;;5082667;28;20475;-90
2021/03/29 08:42:52;;;;;;;5.50;3.00;;;12.50;82.60;;;;;;5054548;28;20441;-89
2021/03/29 08:45:20;;;;;;;5.10;3.30;;;12.60;82.70;;;;;;5047616;28;20441;-91
2021/03/29 08:47:48;;;;;;;3.00;2.80;;;12.70;82.20;;;;;;5048432;28;20529;-91
2021/03/29 08:50:16;;;;;;;4.97;3.40;;;12.80;82.20;;;;;;5044487;28;20461;-91
2021/03/29 08:52:50;;;;;;;4.40;3.10;;;12.80;80.40;;;;;;5051605;28;20441;-90
2021/03/29 08:55:27;;;;;;;5.30;3.30;;;13.00;83.40;;;;;;5052571;28;21128;-91
2021/03/29 08:57:54;;;;;;;3.70;3.40;;;13.20;78.50;;;;;;5048136;28;20422;-90
2021/03/29 09:00:32;;;;;;;4.13;3.30;;;13.10;80.00;;;;;;5047627;28;20430;-90
2021/03/29 09:02:58;;;;;;;3.20;2.90;;;13.20;78.50;;;;;;5085125;28;20785;-91
2021/03/29 09:05:25;;;;;;;3.43;3.20;;;13.50;77.30;;;;;;5049043;28;20452;-90
2021/03/29 09:07:52;;;;;;;3.47;2.93;;;13.60;74.90;;;;;;5047467;28;20481;-91
2021/03/29 09:10:28;;;;;;;3.30;3.00;;;13.60;74.60;;;;;;5050817;28;20414;-90
2021/03/29 09:13:11;;;;;;;6.30;3.50;;;13.70;74.30;;;;;;5057882;28;20476;-89
2021/03/29 09:15:38;;;;;;;4.23;2.93;;;13.80;74.80;;;;;;5053010;28;20429;-91
2021/03/29 09:18:06;;;;;;;3.40;3.10;;;14.00;71.90;;;;;;5050827;28;20492;-90
2021/03/29 09:20:37;;;;;;;3.53;2.87;;;14.10;70.10;;;;;;5055033;28;20437;-90
2021/03/29 09:23:05;;;;;;;3.40;3.10;;;14.10;70.30;;;;;;5046695;28;20433;-90
2021/03/29 09:25:38;;;;;;;4.33;3.30;;;14.20;67.10;;;;;;5054950;28;20429;-92
2021/03/29 09:30:51;;;;;;;2.80;2.53;;;14.60;70.50;;;;;;5051513;28;20494;-91
2021/03/29 09:33:17;;;;;;;3.47;2.70;;;14.80;67.20;;;;;;5052285;28;20422;-91
2021/03/29 09:35:44;;;;;;;3.17;2.63;;;15.10;64.20;;;;;;5051274;28;20422;-90
2021/03/29 09:38:11;;;;;;;4.93;3.07;;;15.20;62.00;;;;;;5049940;28;20437;-90
2021/03/29 09:40:37;;;;;;;2.80;2.50;;;15.30;62.20;;;;;;5052442;28;20426;-89
2021/03/29 09:43:05;;;;;;;3.20;2.77;;;15.60;62.00;;;;;;5048704;28;20960;-92
2021/03/29 09:45:33;;;;;;;4.13;2.97;;;16.10;63.40;;;;;;5051328;28;20438;-91
2021/03/29 09:48:01;;;;;;;4.43;2.70;;;16.50;57.70;;;;;;5052720;28;20480;-89
2021/03/29 09:50:41;;;;;;;5.67;2.57;;;16.80;55.50;;;;;;5052906;28;20844;-89
2021/03/29 09:53:33;;;;;;;7.90;2.40;;;16.80;54.90;;;;;;5042799;28;20437;-89
2021/03/29 09:56:03;;;;;;;4.67;2.47;;;17.00;55.60;;;;;;5045604;28;20541;-90
2021/03/29 09:58:32;;;;;;;3.87;2.77;;;17.00;56.10;;;;;;5046863;28;20493;-90
2021/03/29 10:01:03;;;;;;;4.73;2.83;;;17.00;55.00;;;;;;5051304;28;20854;-91
2021/03/29 10:03:29;;;;;;;4.00;2.83;;;17.10;56.50;;;;;;5044759;28;20465;-91
2021/03/29 10:05:56;;;;;;;4.17;1.93;;;17.50;57.70;;;;;;5051040;28;21843;-92
2021/03/29 10:08:34;;;;;;;4.70;2.20;;;17.70;53.30;;;;;;5054434;28;20315;-90
2021/03/29 10:11:03;;;;;;;4.03;2.37;;;17.80;48.90;;;;;;5052809;28;20425;-91
2021/03/29 10:13:40;;;;;;;2.97;2.00;;;17.70;48.00;;;;;;5049005;28;20444;-91
2021/03/29 10:16:23;;;;;;;2.23;1.40;;;17.70;50.80;;;;;;5050293;28;20452;-90
2021/03/29 10:19:12;;;;;;;2.43;1.90;;;17.90;50.40;;;;;;5047433;28;20532;-90
2021/03/29 10:22:01;;;;;;;2.30;1.93;;;18.10;48.00;;;;;;5049823;28;20437;-90
2021/03/29 10:24:28;;;;;;;3.33;1.70;;;18.50;47.60;;;;;;5050400;28;20553;-90
2021/03/29 10:27:12;;;;;;;3.83;1.60;;;18.60;42.20;;;;;;5049602;28;20437;-89
2021/03/29 10:29:39;;;;;;;5.70;2.30;;;18.70;46.10;;;;;;5084641;28;20456;-89
2021/03/29 10:32:23;;;;;;;4.17;1.80;;;18.70;45.10;;;;;;5052134;28;20475;-91
2021/03/29 10:34:49;;;;;;;3.20;1.70;;;18.60;43.40;;;;;;5050644;28;20459;-91
2021/03/29 10:37:31;;;;;;;6.63;1.87;;;18.40;40.30;;;;;;5046267;28;20468;-91
2021/03/29 10:40:00;;;;;;;4.50;2.30;;;18.70;44.80;;;;;;5047883;28;20803;-89
2021/03/29 10:42:31;;;;;;;10.10;2.27;;;18.70;45.10;;;;;;5052061;28;20447;-91
2021/03/29 10:44:57;;;;;;;3.07;1.53;;;18.80;45.00;;;;;;5049675;28;20467;-90
2021/03/29 10:47:23;;;;;;;5.57;2.10;;;18.80;42.50;;;;;;5045923;28;20508;-91
2021/03/29 10:49:50;;;;;;;2.63;1.90;;;18.90;41.30;;;;;;5044923;28;20195;-90
2021/03/29 10:52:17;;;;;;;4.63;1.93;;;19.10;41.70;;;;;;5048854;28;20452;-89
2021/03/29 10:54:43;;;;;;;3.20;1.83;;;19.10;42.10;;;;;;5045984;28;20521;-91
2021/03/29 10:57:09;;;;;;;3.27;2.30;;;19.10;41.30;;;;;;5052938;28;20453;-90
2021/03/29 10:59:34;;;;;;;2.60;2.17;;;19.30;41.00;;;;;;5050589;28;20959;-86
2021/03/29 11:02:00;;;;;;;5.03;1.87;;;19.30;40.40;;;;;;5047025;28;20432;-89
2021/03/29 11:04:26;;;;;;;2.23;1.60;;;19.60;42.70;;;;;;5047059;28;20198;-89
2021/03/29 11:06:52;;;;;;;3.10;2.00;;;20.10;39.90;;;;;;5043131;28;20263;-92
2021/03/29 11:09:18;;;;;;;3.10;1.80;;;19.80;39.60;;;;;;5052021;28;20481;-90
2021/03/29 11:11:44;;;;;;;2.20;1.97;;;19.60;40.00;;;;;;5054594;28;20436;-92
2021/03/29 11:14:09;;;;;;;2.30;1.87;;;19.30;39.00;;;;;;5045924;28;20183;-92
2021/03/29 11:16:35;;;;;;;3.93;2.00;;;19.30;40.00;;;;;;5047886;28;20184;-93
2021/03/29 11:19:01;;;;;;;3.67;1.90;;;19.40;40.50;;;;;;5050927;28;20206;-91
2021/03/29 11:21:27;;;;;;;3.23;2.03;;;19.80;41.30;;;;;;5046714;28;20600;-91
2021/03/29 11:23:53;;;;;;;3.43;1.57;;;20.10;38.20;;;;;;5045834;28;20188;-91
2021/03/29 11:26:19;;;;;;;2.20;1.80;;;20.00;37.50;;;;;;5045068;28;20506;-91
2021/03/29 11:28:44;;;;;;;3.90;1.73;;;20.10;38.00;;;;;;5051788;28;20329;-91
2021/03/29 11:31:10;;;;;;;2.13;1.83;;;20.20;41.80;;;;;;5049888;28;20474;-94
2021/03/29 11:33:37;;;;;;;2.90;1.70;;;20.80;38.40;;;;;;5045550;28;20194;-91
2021/03/29 11:36:02;;;;;;;1.90;1.47;;;21.00;38.90;;;;;;5042836;28;20847;-92
2021/03/29 11:38:28;;;;;;;2.50;1.40;;;20.50;35.60;;;;;;5043717;28;20843;-92
2021/03/29 11:40:54;;;;;;;2.73;1.60;;;20.70;36.80;;;;;;5051390;28;20183;-93
2021/03/29 11:43:21;;;;;;;4.20;1.87;;;21.30;37.20;;;;;;5046145;28;20194;-93
2021/03/29 11:45:46;;;;;;;2.43;1.67;;;21.10;37.30;;;;;;5047318;28;20456;-92
2021/03/29 11:48:12;;;;;;;3.43;1.90;;;21.30;38.30;;;;;;5049526;28;20473;-94
2021/03/29 11:50:39;;;;;;;3.10;2.00;;;21.30;34.00;;;;;;5052963;28;20183;-93
2021/03/29 11:53:05;;;;;;;3.00;2.30;;;20.80;34.30;;;;;;5052375;28;20188;-94
2021/03/29 11:55:30;;;;;;;2.33;1.93;;;21.00;35.30;;;;;;5046315;28;20860;-93
2021/03/29 11:57:56;;;;;;;2.67;1.83;;;21.10;34.40;;;;;;5042035;28;20664;-93
2021/03/29 12:00:41;;;;;;;2.07;1.87;;;21.30;36.60;;;;;;5049633;28;20175;-93
2021/03/29 12:05:37;;;;;;;4.77;1.80;;;21.80;32.50;;;;;;5051626;28;20780;-93
2021/03/29 12:13:38;;;;;;;3.33;1.93;;;21.70;38.50;;;;;;5047431;28;20533;-93
2021/03/29 12:16:05;;;;;;;1.83;1.50;;;21.90;32.70;;;;;;5049597;28;20524;-94
2021/03/29 12:21:20;;;;;;;2.47;1.90;;;22.30;32.90;;;;;;5054906;28;20643;-92
2021/03/29 12:23:48;;;;;;;3.37;1.77;;;22.80;31.90;;;;;;5051268;28;20786;-94
2021/03/29 12:26:14;;;;;;;3.10;2.10;;;22.90;33.30;;;;;;5052465;28;20421;-94
2021/03/29 12:28:43;;;;;;;2.50;1.60;;;23.20;31.00;;;;;;5055682;28;20558;-93
2021/03/29 12:31:10;;;;;;;2.40;1.93;;;23.50;32.40;;;;;;5055072;28;20449;-93
2021/03/29 12:33:36;;;;;;;2.63;2.07;;;23.10;29.90;;;;;;5054434;28;20520;-91
2021/03/29 12:36:03;;;;;;;4.47;2.40;;;22.00;31.10;;;;;;5048378;28;21053;-93
2021/03/29 12:38:34;;;;;;;3.73;2.17;;;22.30;32.10;;;;;;5052672;28;20446;-91
2021/03/29 12:41:03;;;;;;;2.60;1.90;;;23.10;34.40;;;;;;5052044;28;20436;-88
2021/03/29 12:43:35;;;;;;;3.07;1.67;;;22.70;31.60;;;;;;5049681;28;20438;-90
2021/03/29 12:46:03;;;;;;;2.33;1.80;;;22.10;32.10;;;;;;5051513;28;22113;-92
2021/03/29 12:48:30;;;;;;;3.63;1.80;;;22.20;34.00;;;;;;5045847;28;20501;-94
2021/03/29 12:50:59;;;;;;;2.40;1.60;;;22.50;31.90;;;;;;5049727;28;20431;-95
2021/03/29 12:53:27;;;;;;;3.03;1.80;;;23.20;30.80;;;;;;5049558;28;20434;-92
2021/03/29 12:55:53;;;;;;;2.80;2.00;;;23.70;29.80;;;;;;5049539;28;20430;-92
2021/03/29 12:58:19;;;;;;;2.53;1.70;;;23.40;29.40;;;;;;5053298;28;20432;-90
2021/03/29 13:00:46;;;;;;;2.50;1.93;;;23.10;29.30;;;;;;5046652;28;20184;-93
2021/03/29 13:03:13;;;;;;;2.80;1.70;;;23.40;30.00;;;;;;5052062;28;20437;-92
2021/03/29 13:05:49;;;;;;;4.30;1.90;;;24.00;29.50;;;;;;5046874;28;20462;-92
2021/03/29 13:08:23;;;;;;;3.20;2.20;;;23.20;29.30;;;;;;5053301;28;20480;-90
2021/03/29 13:13:17;;;;;;;3.03;1.40;;;23.30;29.80;;;;;;5048907;28;20438;-88
2021/03/29 13:15:43;;;;;;;4.23;1.77;;;23.60;29.10;;;;;;5047025;28;20541;-90
2021/03/29 13:18:09;;;;;;;3.73;2.00;;;23.80;28.40;;;;;;5048345;28;20532;-93
2021/03/29 13:20:35;;;;;;;2.27;2.07;;;23.60;29.40;;;;;;5047248;28;20184;-90
2021/03/29 13:23:01;;;;;;;2.60;1.50;;;24.00;32.20;;;;;;5046030;28;20192;-91
2021/03/29 13:25:29;;;;;;;5.40;2.00;;;24.60;29.00;;;;;;5048967;28;20440;-90
2021/03/29 13:27:56;;;;;;;2.27;1.77;;;24.70;28.30;;;;;;5041223;28;20222;-87